Time;durP1;ratioP1;P1;durP2;ratioP2;P2;SDS_P1;SDS_P2;PMS_P1;PMS_P2;Temp;Humidity;BMP_temperature;BMP_pressure;BME280_temperature;BME280_humidity;BME280_pressure;Samples;Min_cycle;Max_cycle;Signal;HPM_P1;HPM_P2
2022/09/23 00:01:19;;;;;;;1999.90;999.90;;;;;;;-144.65;100.00;64500.88;5014566;28;20061;-76
2022/09/23 00:03:45;;;;;;;1999.90;999.90;;;;;;;-144.65;100.00;64500.88;5014208;28;20109;-75
2022/09/23 00:06:16;;;;;;;1999.90;999.90;;;;;;;-144.65;100.00;64500.88;5014071;28;20053;-77
2022/09/23 00:08:43;;;;;;;1999.90;999.90;;;;;;;-144.65;100.00;64500.88;5014150;28;20065;-77
2022/09/23 00:11:28;;;;;;;1999.90;999.90;;;;;;;-144.65;100.00;64500.88;5013795;28;20137;-77
2022/09/23 00:13:57;;;;;;;1999.90;999.90;;;;;;;-144.65;100.00;64500.88;5013837;28;20057;-77
2022/09/23 00:16:32;;;;;;;1999.90;999.90;;;;;;;-144.65;100.00;64500.88;4996070;28;20048;-76
2022/09/23 00:18:59;;;;;;;1999.90;999.90;;;;;;;-144.65;100.00;64500.88;5014047;28;20070;-77
2022/09/23 00:21:25;;;;;;;1999.90;999.90;;;;;;;-144.65;100.00;64500.88;5013983;28;20038;-76
2022/09/23 00:23:50;;;;;;;1999.90;999.90;;;;;;;-144.65;100.00;64500.88;5014628;28;20549;-77
2022/09/23 00:26:17;;;;;;;1999.90;999.90;;;;;;;-144.65;100.00;64500.88;5013633;28;20026;-77
2022/09/23 00:28:46;;;;;;;1999.90;999.90;;;;;;;-144.65;100.00;64500.88;5013884;28;20026;-77
2022/09/23 00:31:15;;;;;;;1999.90;999.90;;;;;;;-144.65;100.00;64500.88;5013762;28;20053;-76
2022/09/23 00:33:40;;;;;;;1999.90;999.90;;;;;;;-144.65;100.00;64500.88;5013777;28;20026;-77
2022/09/23 00:36:09;;;;;;;1999.90;999.90;;;;;;;-144.65;100.00;64500.88;5013121;28;20026;-76
2022/09/23 00:38:35;;;;;;;1999.90;999.90;;;;;;;-144.65;100.00;64500.88;5012577;28;20653;-76
2022/09/23 00:41:01;;;;;;;1999.90;999.90;;;;;;;-144.65;100.00;64500.88;5012301;28;20141;-76
2022/09/23 00:43:46;;;;;;;1999.90;999.90;;;;;;;-144.65;100.00;64500.88;5012785;28;20497;-77
2022/09/23 00:46:17;;;;;;;1999.90;999.90;;;;;;;-144.65;100.00;64500.88;5012776;28;20022;-75
2022/09/23 00:48:43;;;;;;;1999.90;999.90;;;;;;;-144.65;100.00;64500.88;5012711;28;20042;-76
2022/09/23 00:51:16;;;;;;;1999.90;999.90;;;;;;;-144.65;100.00;64500.88;5012953;28;20108;-76
2022/09/23 00:53:44;;;;;;;1999.90;999.90;;;;;;;-144.65;100.00;64500.88;5012663;28;20033;-76
2022/09/23 00:56:11;;;;;;;1999.90;999.90;;;;;;;-144.65;100.00;64500.88;5012214;28;20038;-76
2022/09/23 00:58:39;;;;;;;1999.90;999.90;;;;;;;-144.65;100.00;64500.88;5011952;28;20029;-76
2022/09/23 01:01:05;;;;;;;1999.90;999.90;;;;;;;-144.65;100.00;64500.88;5012713;28;20149;-76
2022/09/23 01:03:30;;;;;;;1999.90;999.90;;;;;;;-144.65;100.00;64500.88;5012162;28;20112;-76
2022/09/23 01:05:56;;;;;;;1999.90;999.90;;;;;;;-144.65;100.00;64500.88;5012559;28;20474;-76
2022/09/23 01:08:25;;;;;;;1999.90;999.90;;;;;;;-144.65;100.00;64500.88;5011793;28;20033;-76
2022/09/23 01:11:13;;;;;;;1999.90;999.90;;;;;;;-144.65;100.00;64500.88;5011956;28;20031;-76
2022/09/23 01:13:48;;;;;;;1999.90;999.90;;;;;;;-144.65;100.00;64500.88;4994912;28;20085;-77
2022/09/23 01:16:23;;;;;;;1999.90;999.90;;;;;;;-144.65;100.00;64500.88;5013111;28;20112;-77
2022/09/23 01:19:12;;;;;;;1999.90;999.90;;;;;;;-144.65;100.00;64500.88;5013383;28;20117;-76
2022/09/23 01:21:57;;;;;;;1999.90;999.90;;;;;;;-144.65;100.00;64500.88;4967111;28;20041;-76
2022/09/23 01:24:41;;;;;;;1999.90;999.90;;;;;;;-144.65;100.00;64500.88;5012958;28;20036;-77
2022/09/23 01:27:37;;;;;;;1999.90;999.90;;;;;;;-144.65;100.00;64500.88;4994969;28;20034;-77
2022/09/23 01:30:21;;;;;;;;;;;;;;;-144.65;100.00;64500.88;4995193;28;20034;-77
2022/09/23 01:33:03;;;;;;;1999.90;999.90;;;;;;;-144.65;100.00;64500.88;5012620;28;20004;-78
2022/09/23 01:35:41;;;;;;;1999.90;999.90;;;;;;;-144.65;100.00;64500.88;4995482;28;20026;-77
2022/09/23 01:38:25;;;;;;;1999.90;999.90;;;;;;;-144.65;100.00;64500.88;5012791;28;20025;-77
2022/09/23 01:40:59;;;;;;;1999.90;999.90;;;;;;;-144.65;100.00;64500.88;5012835;28;20123;-77
2022/09/23 01:43:33;;;;;;;1999.90;999.90;;;;;;;-144.65;100.00;64500.88;5012998;28;20030;-77
2022/09/23 01:46:02;;;;;;;1999.90;999.90;;;;;;;-144.65;100.00;64500.88;5013078;28;20030;-77
2022/09/23 01:48:35;;;;;;;1999.90;999.90;;;;;;;-144.65;100.00;64500.88;5010050;28;20036;-76
2022/09/23 01:51:08;;;;;;;1999.90;999.90;;;;;;;-144.65;100.00;64500.88;4999000;28;20097;-76
2022/09/23 01:53:49;;;;;;;1999.90;999.90;;;;;;;-144.65;100.00;64500.88;4993660;28;20498;-77
2022/09/23 01:56:38;;;;;;;1999.90;999.90;;;;;;;-144.65;100.00;64500.88;5011929;28;20060;-77
2022/09/23 01:59:17;;;;;;;1999.90;999.90;;;;;;;-144.65;100.00;64500.88;5011191;28;20120;-77
2022/09/23 02:02:04;;;;;;;1999.90;999.90;;;;;;;-144.65;100.00;64500.88;4991800;28;20049;-76
2022/09/23 02:04:38;;;;;;;1999.90;999.90;;;;;;;-144.65;100.00;64500.88;4993089;28;20049;-76
2022/09/23 02:07:10;;;;;;;1999.90;999.90;;;;;;;-144.65;100.00;64500.88;4993015;28;20448;-76
2022/09/23 02:09:41;;;;;;;1999.90;999.90;;;;;;;-144.65;100.00;64500.88;5010687;28;20018;-76
2022/09/23 02:12:14;;;;;;;1999.90;999.90;;;;;;;-144.65;100.00;64500.88;5011379;28;20616;-76
2022/09/23 02:14:46;;;;;;;1999.90;999.90;;;;;;;-144.65;100.00;64500.88;5012150;28;20034;-76
2022/09/23 02:17:21;;;;;;;1999.90;999.90;;;;;;;-144.65;100.00;64500.88;5012485;28;20038;-76
2022/09/23 02:19:56;;;;;;;1999.90;999.90;;;;;;;-144.65;100.00;64500.88;5010718;28;20033;-76
2022/09/23 02:22:35;;;;;;;1999.90;999.90;;;;;;;-144.65;100.00;64500.88;5010614;28;20041;-74
2022/09/23 02:25:02;;;;;;;1999.90;999.90;;;;;;;-144.65;100.00;64500.88;5010617;28;20079;-76
2022/09/23 02:27:43;;;;;;;1999.90;999.90;;;;;;;-144.65;100.00;64500.88;5013341;28;20026;-76
2022/09/23 02:30:20;;;;;;;1999.90;999.90;;;;;;;-144.65;100.00;64500.88;4996228;28;20028;-77
2022/09/23 02:33:03;;;;;;;1999.90;999.90;;;;;;;-144.65;100.00;64500.88;4996318;28;20061;-76
2022/09/23 02:35:32;;;;;;;1999.90;999.90;;;;;;;-144.65;100.00;64500.88;5014067;28;20030;-76
2022/09/23 02:38:06;;;;;;;1999.90;999.90;;;;;;;-144.65;100.00;64500.88;5013842;28;20072;-76
2022/09/23 02:40:37;;;;;;;1999.90;999.90;;;;;;;-144.65;100.00;64500.88;5013808;28;20536;-76
2022/09/23 02:43:15;;;;;;;1999.90;999.90;;;;;;;-144.65;100.00;64500.88;5006451;28;20045;-76
2022/09/23 02:45:41;;;;;;;1999.90;999.90;;;;;;;-144.65;100.00;64500.88;4994847;28;20038;-76
2022/09/23 02:48:13;;;;;;;1999.90;999.90;;;;;;;-144.65;100.00;64500.88;4994433;28;20030;-76
2022/09/23 02:50:39;;;;;;;1999.90;999.90;;;;;;;-144.65;100.00;64500.88;4994546;28;20487;-76
2022/09/23 02:53:06;;;;;;;1999.90;999.90;;;;;;;-144.65;100.00;64500.88;4994403;28;20049;-76
2022/09/23 02:55:32;;;;;;;1999.90;999.90;;;;;;;-144.65;100.00;64500.88;4994043;28;20026;-77
2022/09/23 02:58:00;;;;;;;1999.90;999.90;;;;;;;-144.65;100.00;64500.88;4994121;28;20034;-76
2022/09/23 03:00:38;;;;;;;1999.90;999.90;;;;;;;-144.65;100.00;64500.88;5005086;28;20360;-76
2022/09/23 03:03:28;;;;;;;1999.90;999.90;;;;;;;-144.65;100.00;64500.88;5012566;28;20038;-76
2022/09/23 03:05:57;;;;;;;1999.90;999.90;;;;;;;-144.65;100.00;64500.88;4995891;28;20030;-76
2022/09/23 03:08:35;;;;;;;1999.90;999.90;;;;;;;-144.65;100.00;64500.88;5013761;28;20029;-76
2022/09/23 03:11:07;;;;;;;1999.90;999.90;;;;;;;-144.65;100.00;64500.88;5012920;28;20577;-76
2022/09/23 03:13:51;;;;;;;1999.90;999.90;;;;;;;-144.65;100.00;64500.88;5013426;28;20084;-76
2022/09/23 03:16:33;;;;;;;1999.90;999.90;;;;;;;-144.65;100.00;64500.88;5013591;28;20028;-75
2022/09/23 03:19:17;;;;;;;1999.90;999.90;;;;;;;-144.65;100.00;64500.88;5013299;28;20029;-76
2022/09/23 03:21:56;;;;;;;1999.90;999.90;;;;;;;-144.65;100.00;64500.88;5013781;28;20479;-76
2022/09/23 03:24:23;;;;;;;1999.90;999.90;;;;;;;-144.65;100.00;64500.88;5013214;28;20410;-76
2022/09/23 03:26:52;;;;;;;1999.90;999.90;;;;;;;-144.65;100.00;64500.88;5013134;28;20017;-76
2022/09/23 03:29:20;;;;;;;1999.90;999.90;;;;;;;-144.65;100.00;64500.88;5013098;28;20538;-76
2022/09/23 03:31:46;;;;;;;1999.90;999.90;;;;;;;-144.65;100.00;64500.88;5013101;28;20068;-76
2022/09/23 03:34:16;;;;;;;1999.90;999.90;;;;;;;-144.65;100.00;64500.88;5012884;28;20030;-76
2022/09/23 03:36:52;;;;;;;1999.90;999.90;;;;;;;-144.65;100.00;64500.88;5012983;28;20029;-76
2022/09/23 03:39:40;;;;;;;1999.90;999.90;;;;;;;-144.65;100.00;64500.88;5011871;28;20021;-76
2022/09/23 03:42:11;;;;;;;1999.90;999.90;;;;;;;-144.65;100.00;64500.88;5012572;28;20112;-76
2022/09/23 03:44:38;;;;;;;1999.90;999.90;;;;;;;-144.65;100.00;64500.88;5013695;28;20705;-76
2022/09/23 03:47:04;;;;;;;1999.90;999.90;;;;;;;-144.65;100.00;64500.88;4995503;28;20033;-76
2022/09/23 03:49:34;;;;;;;1999.90;999.90;;;;;;;-144.65;100.00;64500.88;4995394;28;20383;-75
2022/09/23 03:52:00;;;;;;;1999.90;999.90;;;;;;;-144.65;100.00;64500.88;5014005;28;20089;-75
2022/09/23 03:54:28;;;;;;;1999.90;999.90;;;;;;;-144.65;100.00;64500.88;5014746;28;20113;-75
2022/09/23 03:56:56;;;;;;;1999.90;999.90;;;;;;;-144.65;100.00;64500.88;5016767;28;20129;-76
2022/09/23 03:59:22;;;;;;;1999.90;999.90;;;;;;;-144.65;100.00;64500.88;5016807;28;21057;-76
2022/09/23 04:01:49;;;;;;;1999.90;999.90;;;;;;;-144.65;100.00;64500.88;5016551;28;20026;-76
2022/09/23 04:04:14;;;;;;;1999.90;999.90;;;;;;;-144.65;100.00;64500.88;5014228;28;20025;-76
2022/09/23 04:06:40;;;;;;;1999.90;999.90;;;;;;;-144.65;100.00;64500.88;5013904;28;20172;-75
2022/09/23 04:09:05;;;;;;;1999.90;999.90;;;;;;;-144.65;100.00;64500.88;5017871;28;20109;-76
2022/09/23 04:11:31;;;;;;;1999.90;999.90;;;;;;;-144.65;100.00;64500.88;5012611;28;20486;-76
2022/09/23 04:13:57;;;;;;;1999.90;999.90;;;;;;;-144.65;100.00;64500.88;5013070;28;20530;-76
2022/09/23 04:16:22;;;;;;;1999.90;999.90;;;;;;;-144.65;100.00;64500.88;5013527;28;20030;-76
2022/09/23 04:18:48;;;;;;;1999.90;999.90;;;;;;;-144.65;100.00;64500.88;5012740;28;20030;-76
2022/09/23 04:21:13;;;;;;;1999.90;999.90;;;;;;;-144.65;100.00;64500.88;5012768;28;20845;-76
2022/09/23 04:23:39;;;;;;;1999.90;999.90;;;;;;;-144.65;100.00;64500.88;5012361;28;20087;-76
2022/09/23 04:26:04;;;;;;;1999.90;999.90;;;;;;;-144.65;100.00;64500.88;5012070;28;20406;-76
2022/09/23 04:28:30;;;;;;;1999.90;999.90;;;;;;;-144.65;100.00;64500.88;5012576;28;20389;-76
2022/09/23 04:30:56;;;;;;;1999.90;999.90;;;;;;;-144.65;100.00;64500.88;5012577;28;20030;-76
2022/09/23 04:33:23;;;;;;;1999.90;999.90;;;;;;;-144.65;100.00;64500.88;5013121;28;20092;-76
2022/09/23 04:35:50;;;;;;;1999.90;999.90;;;;;;;-144.65;100.00;64500.88;5012444;28;20026;-76
2022/09/23 04:38:16;;;;;;;1999.90;999.90;;;;;;;-144.65;100.00;64500.88;5012061;28;20119;-76
2022/09/23 04:40:41;;;;;;;1999.90;999.90;;;;;;;-144.65;100.00;64500.88;5013455;28;20074;-76
2022/09/23 04:43:06;;;;;;;1999.90;999.90;;;;;;;-144.65;100.00;64500.88;5026450;28;20148;-76
2022/09/23 04:45:32;;;;;;;1999.90;999.90;;;;;;;-144.65;100.00;64500.88;5030939;28;20133;-76
2022/09/23 04:47:59;;;;;;;1999.90;999.90;;;;;;;-144.65;100.00;64500.88;5018981;28;20100;-75
2022/09/23 04:50:25;;;;;;;1999.90;999.90;;;;;;;-144.65;100.00;64500.88;5020990;28;20053;-76
2022/09/23 04:52:51;;;;;;;1999.90;999.90;;;;;;;-144.65;100.00;64500.88;5022213;28;20402;-76
2022/09/23 04:55:17;;;;;;;1999.90;999.90;;;;;;;-144.65;100.00;64500.88;5021862;28;20033;-77
2022/09/23 04:57:43;;;;;;;1999.90;999.90;;;;;;;-144.65;100.00;64500.88;5026113;28;20528;-77
2022/09/23 05:00:11;;;;;;;1999.90;999.90;;;;;;;-144.65;100.00;64500.88;5033398;28;20025;-76
2022/09/23 05:02:48;;;;;;;1999.90;999.90;;;;;;;-144.65;100.00;64500.88;5026223;28;20072;-75
2022/09/23 05:05:20;;;;;;;1999.90;999.90;;;;;;;-144.65;100.00;64500.88;5023583;28;20033;-77
2022/09/23 05:07:48;;;;;;;1999.90;999.90;;;;;;;-144.65;100.00;64500.88;5018356;28;20571;-76
2022/09/23 05:10:14;;;;;;;1999.90;999.90;;;;;;;-144.65;100.00;64500.88;5019723;28;20396;-77
2022/09/23 05:12:40;;;;;;;1999.90;999.90;;;;;;;-144.65;100.00;64500.88;5018502;28;20038;-77
2022/09/23 05:15:06;;;;;;;1999.90;999.90;;;;;;;-144.65;100.00;64500.88;5020473;28;20830;-77
2022/09/23 05:17:31;;;;;;;1999.90;999.90;;;;;;;-144.65;100.00;64500.88;5018904;28;20437;-77
2022/09/23 05:19:58;;;;;;;1999.90;999.90;;;;;;;-144.65;100.00;64500.88;5016737;28;20010;-76
2022/09/23 05:22:25;;;;;;;1999.90;999.90;;;;;;;-144.65;100.00;64500.88;5012842;28;20026;-76
2022/09/23 05:24:51;;;;;;;1999.90;999.90;;;;;;;-144.65;100.00;64500.88;5022916;28;20525;-77
2022/09/23 05:27:16;;;;;;;1999.90;999.90;;;;;;;-144.65;100.00;64500.88;5014886;28;20034;-76
2022/09/23 05:29:41;;;;;;;1999.90;999.90;;;;;;;-144.65;100.00;64500.88;5012410;28;20032;-77
2022/09/23 05:32:07;;;;;;;1999.90;999.90;;;;;;;-144.65;100.00;64500.88;5013774;28;20033;-79
2022/09/23 05:34:32;;;;;;;1999.90;999.90;;;;;;;-144.65;100.00;64500.88;5015034;28;20064;-77
2022/09/23 05:36:57;;;;;;;1999.90;999.90;;;;;;;-144.65;100.00;64500.88;5014421;28;20033;-77
2022/09/23 05:39:23;;;;;;;1999.90;999.90;;;;;;;-144.65;100.00;64500.88;5014224;28;20092;-77
2022/09/23 05:41:48;;;;;;;1999.90;999.90;;;;;;;-144.65;100.00;64500.88;5016838;28;20165;-78
2022/09/23 05:44:13;;;;;;;1999.90;999.90;;;;;;;-144.65;100.00;64500.88;5016687;28;20026;-77
2022/09/23 05:46:39;;;;;;;1999.90;999.90;;;;;;;-144.65;100.00;64500.88;5015069;28;20033;-77
2022/09/23 05:49:05;;;;;;;1999.90;999.90;;;;;;;-144.65;100.00;64500.88;5014614;28;20490;-78
2022/09/23 05:51:33;;;;;;;1999.90;999.90;;;;;;;-144.65;100.00;64500.88;5013916;28;20084;-77
2022/09/23 05:53:59;;;;;;;1999.90;999.90;;;;;;;-144.65;100.00;64500.88;5014813;28;20026;-78
2022/09/23 05:56:27;;;;;;;1999.90;999.90;;;;;;;-144.65;100.00;64500.88;5014040;28;20029;-77
2022/09/23 05:58:54;;;;;;;1999.90;999.90;;;;;;;-144.65;100.00;64500.88;5021594;28;20029;-78
2022/09/23 06:01:32;;;;;;;1999.90;999.90;;;;;;;-144.65;100.00;64500.88;5027048;28;20038;-76
2022/09/23 06:03:59;;;;;;;1999.90;999.90;;;;;;;-144.65;100.00;64500.88;5022379;28;20029;-77
2022/09/23 06:06:29;;;;;;;1999.90;999.90;;;;;;;-144.65;100.00;64500.88;5021281;28;20026;-78
2022/09/23 06:08:55;;;;;;;1999.90;999.90;;;;;;;-144.65;100.00;64500.88;5016922;28;20504;-77
2022/09/23 06:11:20;;;;;;;1999.90;999.90;;;;;;;-144.65;100.00;64500.88;5024280;28;20030;-75
2022/09/23 06:13:48;;;;;;;1999.90;999.90;;;;;;;-144.65;100.00;64500.88;5019719;28;20059;-77
2022/09/23 06:16:14;;;;;;;1999.90;999.90;;;;;;;-144.65;100.00;64500.88;5025147;28;20465;-76
2022/09/23 06:18:44;;;;;;;1999.90;999.90;;;;;;;-144.65;100.00;64500.88;5006054;28;20021;-76
2022/09/23 06:21:14;;;;;;;1999.90;999.90;;;;;;;-144.65;100.00;64500.88;5025260;28;20485;-76
2022/09/23 06:23:41;;;;;;;1999.90;999.90;;;;;;;-144.65;100.00;64500.88;5027996;28;20037;-75
2022/09/23 06:26:08;;;;;;;1999.90;999.90;;;;;;;-144.65;100.00;64500.88;5031954;28;20446;-78
2022/09/23 06:28:37;;;;;;;1999.90;999.90;;;;;;;-144.65;100.00;64500.88;5016466;28;20064;-77
2022/09/23 06:31:06;;;;;;;1999.90;999.90;;;;;;;-144.65;100.00;64500.88;5022096;28;20022;-77
2022/09/23 06:33:32;;;;;;;1999.90;999.90;;;;;;;-144.65;100.00;64500.88;5021927;28;20022;-77
2022/09/23 06:36:00;;;;;;;1999.90;999.90;;;;;;;-144.65;100.00;64500.88;5016772;28;20030;-75
2022/09/23 06:38:26;;;;;;;1999.90;999.90;;;;;;;-144.65;100.00;64500.88;5016888;28;20056;-76
2022/09/23 06:40:54;;;;;;;1999.90;999.90;;;;;;;-144.65;100.00;64500.88;5029235;28;20025;-77
2022/09/23 06:43:20;;;;;;;1999.90;999.90;;;;;;;-144.65;100.00;64500.88;5018733;28;20356;-76
2022/09/23 06:45:46;;;;;;;1999.90;999.90;;;;;;;-144.65;100.00;64500.88;5014824;28;20026;-76
2022/09/23 06:48:11;;;;;;;1999.90;999.90;;;;;;;-144.65;100.00;64500.88;5014393;28;20034;-77
2022/09/23 06:50:36;;;;;;;1999.90;999.90;;;;;;;-144.65;100.00;64500.88;5014366;28;20112;-76
2022/09/23 06:53:03;;;;;;;1999.90;999.90;;;;;;;-144.65;100.00;64500.88;5014983;28;20025;-77
2022/09/23 06:55:28;;;;;;;1999.90;999.90;;;;;;;-144.65;100.00;64500.88;4997145;28;20022;-77
2022/09/23 06:57:56;;;;;;;1999.90;999.90;;;;;;;-144.65;100.00;64500.88;5014941;28;20081;-77
2022/09/23 07:00:22;;;;;;;1999.90;999.90;;;;;;;-144.65;100.00;64500.88;5014267;28;20097;-77
2022/09/23 07:02:47;;;;;;;1999.90;999.90;;;;;;;-144.65;100.00;64500.88;4997194;28;20117;-77
2022/09/23 07:05:16;;;;;;;1999.90;999.90;;;;;;;-144.65;100.00;64500.88;5014683;28;20034;-76
2022/09/23 07:07:42;;;;;;;1999.90;999.90;;;;;;;-144.65;100.00;64500.88;5014460;28;20030;-77
2022/09/23 07:10:08;;;;;;;1999.90;999.90;;;;;;;-144.65;100.00;64500.88;5015173;28;20037;-77
2022/09/23 07:12:33;;;;;;;1999.90;999.90;;;;;;;-144.65;100.00;64500.88;5013274;28;20399;-77
2022/09/23 07:14:58;;;;;;;1999.90;999.90;;;;;;;-144.65;100.00;64500.88;5014368;28;20084;-78
2022/09/23 07:17:24;;;;;;;1999.90;999.90;;;;;;;-144.65;100.00;64500.88;5014720;28;20060;-76
2022/09/23 07:19:50;;;;;;;1999.90;999.90;;;;;;;-144.65;100.00;64500.88;5014085;28;20045;-77
2022/09/23 07:22:16;;;;;;;1999.90;999.90;;;;;;;-144.65;100.00;64500.88;5014276;28;20045;-77
2022/09/23 07:24:45;;;;;;;1999.90;999.90;;;;;;;-144.65;100.00;64500.88;5014456;28;20112;-77
2022/09/23 07:27:13;;;;;;;1999.90;999.90;;;;;;;-144.65;100.00;64500.88;5014447;28;20108;-77
2022/09/23 07:29:38;;;;;;;1999.90;999.90;;;;;;;-144.65;100.00;64500.88;5014275;28;20022;-76
2022/09/23 07:32:03;;;;;;;1999.90;999.90;;;;;;;-144.65;100.00;64500.88;5014423;28;20088;-77
2022/09/23 07:34:29;;;;;;;1999.90;999.90;;;;;;;-144.65;100.00;64500.88;5014263;28;20504;-77
2022/09/23 07:36:54;;;;;;;1999.90;999.90;;;;;;;-144.65;100.00;64500.88;5014351;28;20136;-78
2022/09/23 07:39:19;;;;;;;1999.90;999.90;;;;;;;-144.65;100.00;64500.88;5013817;28;20029;-77
2022/09/23 07:41:45;;;;;;;1999.90;999.90;;;;;;;-144.65;100.00;64500.88;4995380;28;20064;-78
2022/09/23 07:44:11;;;;;;;1999.90;999.90;;;;;;;-144.65;100.00;64500.88;5013707;28;20037;-78
2022/09/23 07:46:36;;;;;;;1999.90;999.90;;;;;;;-144.65;100.00;64500.88;5013978;28;20455;-77
2022/09/23 07:49:04;;;;;;;1999.90;999.90;;;;;;;-144.65;100.00;64500.88;5013867;28;20061;-77
2022/09/23 07:51:34;;;;;;;1999.90;999.90;;;;;;;-144.65;100.00;64500.88;5018592;28;20049;-78
2022/09/23 07:54:00;;;;;;;1999.90;999.90;;;;;;;-144.65;100.00;64500.88;5035055;28;20084;-78
2022/09/23 07:56:27;;;;;;;1999.90;999.90;;;;;;;-144.65;100.00;64500.88;5022551;28;20084;-74
2022/09/23 07:58:59;;;;;;;1999.90;999.90;;;;;;;-144.65;100.00;64500.88;5019270;28;20021;-74
2022/09/23 08:01:28;;;;;;;1999.90;999.90;;;;;;;-144.65;100.00;64500.88;5022131;28;20021;-73
2022/09/23 08:03:56;;;;;;;1999.90;999.90;;;;;;;-144.65;100.00;64500.88;5022350;28;20022;-73
2022/09/23 08:06:22;;;;;;;1999.90;999.90;;;;;;;-144.65;100.00;64500.88;4997439;28;20703;-74
2022/09/23 08:08:47;;;;;;;1999.90;999.90;;;;;;;-144.65;100.00;64500.88;5027980;28;20092;-74
2022/09/23 08:11:13;;;;;;;1999.90;999.90;;;;;;;-144.65;100.00;64500.88;5021142;28;20036;-73
2022/09/23 08:13:38;;;;;;;1999.90;999.90;;;;;;;-144.65;100.00;64500.88;5019428;28;20148;-73
2022/09/23 08:16:04;;;;;;;1999.90;999.90;;;;;;;-144.65;100.00;64500.88;5020736;28;20025;-72
2022/09/23 08:18:29;;;;;;;1999.90;999.90;;;;;;;-144.65;100.00;64500.88;5018791;28;20005;-75
2022/09/23 08:20:55;;;;;;;1999.90;999.90;;;;;;;-144.65;100.00;64500.88;5017883;28;20436;-74
2022/09/23 08:23:20;;;;;;;1999.90;999.90;;;;;;;-144.65;100.00;64500.88;4997407;28;20052;-75
2022/09/23 08:25:46;;;;;;;1999.90;999.90;;;;;;;-144.65;100.00;64500.88;5019985;28;20418;-74
2022/09/23 08:28:17;;;;;;;1999.90;999.90;;;;;;;-144.65;100.00;64500.88;5019117;28;20091;-74
2022/09/23 08:30:48;;;;;;;1999.90;999.90;;;;;;;-144.65;100.00;64500.88;5019173;28;20071;-74
2022/09/23 08:33:13;;;;;;;1999.90;999.90;;;;;;;-144.65;100.00;64500.88;5021356;28;20051;-74
2022/09/23 08:35:40;;;;;;;1999.90;999.90;;;;;;;-144.65;100.00;64500.88;5018379;28;20028;-74
2022/09/23 08:38:06;;;;;;;1999.90;999.90;;;;;;;-144.65;100.00;64500.88;5020087;28;20022;-74
2022/09/23 08:40:36;;;;;;;1999.90;999.90;;;;;;;-144.65;100.00;64500.88;5021908;28;20471;-74
2022/09/23 08:43:01;;;;;;;1999.90;999.90;;;;;;;-144.65;100.00;64500.88;5007493;28;20088;-74
2022/09/23 08:45:27;;;;;;;1999.90;999.90;;;;;;;-144.65;100.00;64500.88;5020534;28;20029;-73
2022/09/23 08:48:04;;;;;;;1999.90;999.90;;;;;;;-144.65;100.00;64500.88;5021372;28;20020;-74
2022/09/23 08:50:42;;;;;;;1999.90;999.90;;;;;;;-144.65;100.00;64500.88;5020699;28;20024;-74
2022/09/23 08:53:23;;;;;;;1999.90;999.90;;;;;;;-144.65;100.00;64500.88;5018825;28;20064;-73
2022/09/23 08:55:52;;;;;;;1999.90;999.90;;;;;;;-144.65;100.00;64500.88;5019136;28;20026;-75
2022/09/23 08:58:37;;;;;;;1999.90;999.90;;;;;;;-144.65;100.00;64500.88;5009245;28;20497;-73
2022/09/23 09:01:11;;;;;;;1999.90;999.90;;;;;;;-144.65;100.00;64500.88;5016568;28;20087;-74
2022/09/23 09:03:47;;;;;;;1999.90;999.90;;;;;;;-144.65;100.00;64500.88;5018930;28;20073;-74
2022/09/23 09:06:24;;;;;;;1999.90;999.90;;;;;;;-144.65;100.00;64500.88;5018460;28;20033;-75
2022/09/23 09:08:55;;;;;;;1999.90;999.90;;;;;;;-144.65;100.00;64500.88;5018382;28;20048;-76
2022/09/23 09:11:26;;;;;;;1999.90;999.90;;;;;;;-144.65;100.00;64500.88;5019432;28;20029;-74
2022/09/23 09:14:16;;;;;;;1999.90;999.90;;;;;;;-144.65;100.00;64500.88;5016738;28;20041;-75
2022/09/23 09:17:08;;;;;;;1999.90;999.90;;;;;;;-144.65;100.00;64500.88;5016879;28;20028;-76
2022/09/23 09:19:50;;;;;;;1999.90;999.90;;;;;;;-144.65;100.00;64500.88;5019817;28;20025;-76
2022/09/23 09:22:32;;;;;;;1999.90;999.90;;;;;;;-144.65;100.00;64500.88;5021215;28;20442;-77
2022/09/23 09:25:04;;;;;;;1999.90;999.90;;;;;;;-144.65;100.00;64500.88;5014980;28;20076;-75
2022/09/23 09:27:30;;;;;;;1999.90;999.90;;;;;;;-144.65;100.00;64500.88;5015809;28;20387;-74
2022/09/23 09:29:57;;;;;;;1999.90;999.90;;;;;;;-144.65;100.00;64500.88;4995780;28;20029;-77
2022/09/23 09:32:27;;;;;;;1999.90;999.90;;;;;;;-144.65;100.00;64500.88;5013975;28;20033;-75
2022/09/23 09:34:59;;;;;;;1999.90;999.90;;;;;;;-144.65;100.00;64500.88;5010999;28;20021;-75
2022/09/23 09:37:32;;;;;;;1999.90;999.90;;;;;;;-144.65;100.00;64500.88;5013807;28;20038;-75
2022/09/23 09:39:58;;;;;;;1999.90;999.90;;;;;;;-144.65;100.00;64500.88;5014997;28;20112;-75
2022/09/23 09:42:36;;;;;;;1999.90;999.90;;;;;;;-144.65;100.00;64500.88;5014508;28;20030;-75
2022/09/23 09:45:10;;;;;;;1999.90;999.90;;;;;;;-144.65;100.00;64500.88;5014808;28;20022;-75
2022/09/23 09:47:55;;;;;;;1999.90;999.90;;;;;;;-144.65;100.00;64500.88;4997355;28;20045;-75
2022/09/23 09:50:39;;;;;;;1999.90;999.90;;;;;;;-144.65;100.00;64500.88;5003823;28;20022;-75
2022/09/23 09:53:18;;;;;;;1999.90;999.90;;;;;;;-144.65;100.00;64500.88;5023703;28;20017;-75
2022/09/23 09:56:02;;;;;;;1999.90;999.90;;;;;;;-144.65;100.00;64500.88;5024086;28;20040;-75
2022/09/23 09:58:42;;;;;;;1999.90;999.90;;;;;;;-144.65;100.00;64500.88;5024134;28;20116;-75
2022/09/23 10:01:16;;;;;;;1999.90;999.90;;;;;;;-144.65;100.00;64500.88;5024175;28;20021;-75
2022/09/23 10:03:43;;;;;;;1999.90;999.90;;;;;;;-144.65;100.00;64500.88;5024146;28;20474;-74
2022/09/23 10:06:23;;;;;;;1999.90;999.90;;;;;;;-144.65;100.00;64500.88;5018799;28;20031;-74
2022/09/23 10:09:14;;;;;;;1999.90;999.90;;;;;;;-144.65;100.00;64500.88;5021867;28;20022;-74
2022/09/23 10:11:40;;;;;;;1999.90;999.90;;;;;;;-144.65;100.00;64500.88;5021967;28;20022;-74
2022/09/23 10:14:08;;;;;;;1999.90;999.90;;;;;;;-144.65;100.00;64500.88;5021278;28;20060;-75
2022/09/23 10:16:34;;;;;;;1999.90;999.90;;;;;;;-144.65;100.00;64500.88;5023215;28;20026;-75
2022/09/23 10:19:02;;;;;;;1999.90;999.90;;;;;;;-144.65;100.00;64500.88;5023530;28;20028;-75
2022/09/23 10:21:37;;;;;;;1999.90;999.90;;;;;;;-144.65;100.00;64500.88;5021640;28;20062;-75
2022/09/23 10:24:09;;;;;;;1999.90;999.90;;;;;;;-144.65;100.00;64500.88;5020544;28;20433;-74
2022/09/23 10:26:53;;;;;;;1999.90;999.90;;;;;;;-144.65;100.00;64500.88;5020690;28;20030;-74
2022/09/23 10:29:24;;;;;;;1999.90;999.90;;;;;;;-144.65;100.00;64500.88;5022015;28;20026;-75
2022/09/23 10:32:09;;;;;;;1999.90;999.90;;;;;;;-144.65;100.00;64500.88;5001262;28;20030;-75
2022/09/23 10:34:34;;;;;;;;;;;;;;;-144.65;100.00;64500.88;5020933;28;20060;-75
2022/09/23 10:37:13;;;;;;;1999.90;999.90;;;;;;;-144.65;100.00;64500.88;5022098;28;19959;-76
2022/09/23 10:48:34;;;;;;;1999.90;999.90;;;;;;;-144.65;100.00;64500.88;4994280;28;20077;-77
2022/09/23 10:51:03;;;;;;;1999.90;999.90;;;;;;;-144.65;100.00;64500.88;4996349;28;20066;-74
2022/09/23 10:53:41;;;;;;;1999.90;999.90;;;;;;;-144.65;100.00;64500.88;5012176;28;20034;-75
2022/09/23 10:56:24;;;;;;;1999.90;999.90;;;;;;;-144.65;100.00;64500.88;5012840;28;20068;-75